sensor_id;sensor_type;location;lat;lon;timestamp;pressure;altitude;pressure_sealevel;temperature;humidity
7052;BME280;3567;52.444;13.556;2022-12-18T00:00:42;102891.66;;;-6.25;100.00
7052;BME280;3567;52.444;13.556;2022-12-18T00:03:27;102890.81;;;-6.26;100.00
7052;BME280;3567;52.444;13.556;2022-12-18T00:05:53;102895.03;;;-6.23;100.00
7052;BME280;3567;52.444;13.556;2022-12-18T00:08:18;102908.06;;;-6.23;100.00
7052;BME280;3567;52.444;13.556;2022-12-18T00:10:44;102907.19;;;-6.22;100.00
7052;BME280;3567;52.444;13.556;2022-12-18T00:13:12;102901.16;;;-6.24;100.00
7052;BME280;3567;52.444;13.556;2022-12-18T00:15:38;102906.44;;;-6.26;100.00
7052;BME280;3567;52.444;13.556;2022-12-18T00:18:04;102911.78;;;-6.29;100.00
7052;BME280;3567;52.444;13.556;2022-12-18T00:20:30;102914.63;;;-6.34;100.00
7052;BME280;3567;52.444;13.556;2022-12-18T00:22:56;102909.44;;;-6.35;100.00
7052;BME280;3567;52.444;13.556;2022-12-18T00:25:21;102915.38;;;-6.31;100.00
7052;BME280;3567;52.444;13.556;2022-12-18T00:27:47;102904.75;;;-6.27;100.00
7052;BME280;3567;52.444;13.556;2022-12-18T00:30:13;102898.56;;;-6.24;100.00
7052;BME280;3567;52.444;13.556;2022-12-18T00:32:38;102900.19;;;-6.22;100.00
7052;BME280;3567;52.444;13.556;2022-12-18T00:35:05;102901.81;;;-6.19;100.00
7052;BME280;3567;52.444;13.556;2022-12-18T00:37:31;102893.88;;;-6.16;100.00
7052;BME280;3567;52.444;13.556;2022-12-18T00:39:56;102900.00;;;-6.17;100.00
7052;BME280;3567;52.444;13.556;2022-12-18T00:42:21;102895.56;;;-6.15;100.00
7052;BME280;3567;52.444;13.556;2022-12-18T00:45:19;102897.25;;;-6.14;100.00
7052;BME280;3567;52.444;13.556;2022-12-18T00:47:45;102904.22;;;-6.15;100.00
7052;BME280;3567;52.444;13.556;2022-12-18T00:50:10;102894.72;;;-6.16;100.00
7052;BME280;3567;52.444;13.556;2022-12-18T00:52:35;102895.66;;;-6.18;100.00
7052;BME280;3567;52.444;13.556;2022-12-18T00:55:01;102895.63;;;-6.17;100.00
7052;BME280;3567;52.444;13.556;2022-12-18T00:57:26;102882.50;;;-6.15;100.00
7052;BME280;3567;52.444;13.556;2022-12-18T00:59:52;102884.34;;;-6.17;100.00
7052;BME280;3567;52.444;13.556;2022-12-18T01:02:17;102887.19;;;-6.23;100.00
7052;BME280;3567;52.444;13.556;2022-12-18T01:04:42;102884.03;;;-6.30;100.00
7052;BME280;3567;52.444;13.556;2022-12-18T01:07:08;102887.66;;;-6.34;100.00
7052;BME280;3567;52.444;13.556;2022-12-18T01:09:33;102888.72;;;-6.38;100.00
7052;BME280;3567;52.444;13.556;2022-12-18T01:11:59;102888.78;;;-6.40;100.00
7052;BME280;3567;52.444;13.556;2022-12-18T01:14:25;102895.84;;;-6.42;100.00
7052;BME280;3567;52.444;13.556;2022-12-18T01:16:50;102896.75;;;-6.43;100.00
7052;BME280;3567;52.444;13.556;2022-12-18T01:19:16;102897.59;;;-6.42;100.00
7052;BME280;3567;52.444;13.556;2022-12-18T01:21:41;102898.38;;;-6.40;100.00
7052;BME280;3567;52.444;13.556;2022-12-18T01:24:06;102906.16;;;-6.39;100.00
7052;BME280;3567;52.444;13.556;2022-12-18T01:26:32;102909.53;;;-6.37;100.00
7052;BME280;3567;52.444;13.556;2022-12-18T01:28:58;102909.53;;;-6.37;100.00
7052;BME280;3567;52.444;13.556;2022-12-18T01:31:28;102920.53;;;-6.30;100.00
7052;BME280;3567;52.444;13.556;2022-12-18T01:33:55;102921.38;;;-6.29;100.00
7052;BME280;3567;52.444;13.556;2022-12-18T01:36:26;102919.84;;;-6.34;100.00
7052;BME280;3567;52.444;13.556;2022-12-18T01:38:52;102915.59;;;-6.36;100.00
7052;BME280;3567;52.444;13.556;2022-12-18T01:41:22;102914.66;;;-6.35;100.00
7052;BME280;3567;52.444;13.556;2022-12-18T01:43:50;102918.13;;;-6.35;100.00
7052;BME280;3567;52.444;13.556;2022-12-18T01:46:18;102921.66;;;-6.36;100.00
7052;BME280;3567;52.444;13.556;2022-12-18T01:48:47;102930.38;;;-6.37;100.00
7052;BME280;3567;52.444;13.556;2022-12-18T01:51:13;102925.44;;;-6.43;100.00
7052;BME280;3567;52.444;13.556;2022-12-18T01:53:40;102924.91;;;-6.51;100.00
7052;BME280;3567;52.444;13.556;2022-12-18T01:56:07;102924.25;;;-6.56;100.00
7052;BME280;3567;52.444;13.556;2022-12-18T01:58:39;102929.59;;;-6.59;100.00
7052;BME280;3567;52.444;13.556;2022-12-18T02:01:06;102924.41;;;-6.61;100.00
7052;BME280;3567;52.444;13.556;2022-12-18T02:03:31;102926.06;;;-6.58;100.00
7052;BME280;3567;52.444;13.556;2022-12-18T02:06:06;102924.19;;;-6.54;100.00
7052;BME280;3567;52.444;13.556;2022-12-18T02:08:43;102920.66;;;-6.53;100.00
7052;BME280;3567;52.444;13.556;2022-12-18T02:11:39;102933.56;;;-6.50;100.00
7052;BME280;3567;52.444;13.556;2022-12-18T02:14:23;102935.41;;;-6.52;100.00
7052;BME280;3567;52.444;13.556;2022-12-18T02:17:04;102935.47;;;-6.54;100.00
7052;BME280;3567;52.444;13.556;2022-12-18T02:19:45;102938.91;;;-6.53;100.00
7052;BME280;3567;52.444;13.556;2022-12-18T02:25:00;102937.94;;;-6.51;100.00
7052;BME280;3567;52.444;13.556;2022-12-18T02:27:32;102939.63;;;-6.50;100.00
7052;BME280;3567;52.444;13.556;2022-12-18T02:30:00;102939.56;;;-6.48;100.00
7052;BME280;3567;52.444;13.556;2022-12-18T02:32:37;102932.72;;;-6.51;100.00
7052;BME280;3567;52.444;13.556;2022-12-18T02:35:05;102941.44;;;-6.52;100.00
7052;BME280;3567;52.444;13.556;2022-12-18T02:37:33;102943.53;;;-6.60;100.00
7052;BME280;3567;52.444;13.556;2022-12-18T02:40:02;102948.88;;;-6.63;100.00
7052;BME280;3567;52.444;13.556;2022-12-18T02:42:28;102947.28;;;-6.67;100.00
7052;BME280;3567;52.444;13.556;2022-12-18T02:44:54;102958.72;;;-6.70;100.00
7052;BME280;3567;52.444;13.556;2022-12-18T02:47:22;102957.06;;;-6.72;100.00
7052;BME280;3567;52.444;13.556;2022-12-18T02:58:00;102979.34;;;-6.87;100.00
7052;BME280;3567;52.444;13.556;2022-12-18T03:08:29;102966.47;;;-6.90;100.00
7052;BME280;3567;52.444;13.556;2022-12-18T03:11:05;102966.47;;;-6.90;100.00
7052;BME280;3567;52.444;13.556;2022-12-18T03:13:40;102971.75;;;-6.92;100.00
7052;BME280;3567;52.444;13.556;2022-12-18T03:16:12;102967.41;;;-6.93;100.00
7052;BME280;3567;52.444;13.556;2022-12-18T03:18:47;102970.84;;;-6.91;100.00
7052;BME280;3567;52.444;13.556;2022-12-18T03:21:15;102974.34;;;-6.92;100.00
7052;BME280;3567;52.444;13.556;2022-12-18T03:23:48;102970.09;;;-6.94;100.00
7052;BME280;3567;52.444;13.556;2022-12-18T03:26:18;102981.50;;;-6.97;100.00
7052;BME280;3567;52.444;13.556;2022-12-18T03:28:52;102978.09;;;-6.99;100.00
7052;BME280;3567;52.444;13.556;2022-12-18T03:31:22;102972.94;;;-7.00;100.00
7052;BME280;3567;52.444;13.556;2022-12-18T03:33:54;102983.44;;;-7.02;100.00
7052;BME280;3567;52.444;13.556;2022-12-18T03:36:20;102974.81;;;-7.04;100.00
7052;BME280;3567;52.444;13.556;2022-12-18T03:38:46;102974.09;;;-7.07;100.00
7052;BME280;3567;52.444;13.556;2022-12-18T03:43:54;102970.66;;;-7.08;100.00
7052;BME280;3567;52.444;13.556;2022-12-18T03:46:33;102972.44;;;-7.10;100.00
7052;BME280;3567;52.444;13.556;2022-12-18T03:49:14;102970.75;;;-7.11;100.00
7052;BME280;3567;52.444;13.556;2022-12-18T03:52:48;102975.91;;;-7.09;100.00
7052;BME280;3567;52.444;13.556;2022-12-18T03:54:49;102978.56;;;-7.11;100.00
7052;BME280;3567;52.444;13.556;2022-12-18T03:57:19;102974.13;;;-7.09;100.00
7052;BME280;3567;52.444;13.556;2022-12-18T03:59:47;102980.16;;;-7.07;100.00
7052;BME280;3567;52.444;13.556;2022-12-18T04:02:16;102987.16;;;-7.09;100.00
7052;BME280;3567;52.444;13.556;2022-12-18T04:04:42;102981.94;;;-7.09;100.00
7052;BME280;3567;52.444;13.556;2022-12-18T04:07:09;102981.94;;;-7.09;100.00
7052;BME280;3567;52.444;13.556;2022-12-18T04:09:36;102976.81;;;-7.10;100.00
7052;BME280;3567;52.444;13.556;2022-12-18T04:12:02;102972.34;;;-7.07;100.00
7052;BME280;3567;52.444;13.556;2022-12-18T04:14:28;102973.13;;;-7.05;100.00
7052;BME280;3567;52.444;13.556;2022-12-18T04:16:53;102973.00;;;-7.02;100.00
7052;BME280;3567;52.444;13.556;2022-12-18T04:19:18;102978.94;;;-6.98;100.00
7052;BME280;3567;52.444;13.556;2022-12-18T04:21:44;102983.19;;;-6.96;100.00
7052;BME280;3567;52.444;13.556;2022-12-18T04:24:09;102987.41;;;-6.93;100.00
7052;BME280;3567;52.444;13.556;2022-12-18T04:26:34;102979.66;;;-6.95;100.00
7052;BME280;3567;52.444;13.556;2022-12-18T04:29:00;102985.91;;;-6.99;100.00
7052;BME280;3567;52.444;13.556;2022-12-18T04:31:26;102991.25;;;-7.02;100.00
7052;BME280;3567;52.444;13.556;2022-12-18T04:33:51;103000.00;;;-7.04;100.00
7052;BME280;3567;52.444;13.556;2022-12-18T04:36:16;102996.56;;;-7.05;100.00
7052;BME280;3567;52.444;13.556;2022-12-18T04:38:42;102997.38;;;-7.03;100.00
7052;BME280;3567;52.444;13.556;2022-12-18T04:41:07;102992.16;;;-7.03;100.00
7052;BME280;3567;52.444;13.556;2022-12-18T04:43:33;103003.44;;;-7.02;100.00
7052;BME280;3567;52.444;13.556;2022-12-18T04:46:06;103005.19;;;-7.03;100.00
7052;BME280;3567;52.444;13.556;2022-12-18T04:48:32;102993.00;;;-7.02;100.00
7052;BME280;3567;52.444;13.556;2022-12-18T04:50:57;103012.88;;;-7.00;100.00
7052;BME280;3567;52.444;13.556;2022-12-18T04:53:23;103014.47;;;-6.96;100.00
7052;BME280;3567;52.444;13.556;2022-12-18T04:55:48;103006.66;;;-6.96;100.00
7052;BME280;3567;52.444;13.556;2022-12-18T04:58:13;103000.50;;;-6.95;100.00
7052;BME280;3567;52.444;13.556;2022-12-18T05:00:39;103006.47;;;-6.91;100.00
7052;BME280;3567;52.444;13.556;2022-12-18T05:03:04;103003.91;;;-6.93;100.00
7052;BME280;3567;52.444;13.556;2022-12-18T05:05:30;103010.84;;;-6.92;100.00
7052;BME280;3567;52.444;13.556;2022-12-18T05:07:55;103018.69;;;-6.93;100.00
7052;BME280;3567;52.444;13.556;2022-12-18T05:10:20;103003.91;;;-6.93;100.00
7052;BME280;3567;52.444;13.556;2022-12-18T05:12:46;103006.47;;;-6.91;100.00
7052;BME280;3567;52.444;13.556;2022-12-18T05:15:27;103009.84;;;-6.89;100.00
7052;BME280;3567;52.444;13.556;2022-12-18T05:17:52;103006.31;;;-6.88;100.00
7052;BME280;3567;52.444;13.556;2022-12-18T05:20:18;103001.97;;;-6.88;100.00
7052;BME280;3567;52.444;13.556;2022-12-18T05:22:44;103014.81;;;-6.83;100.00
7052;BME280;3567;52.444;13.556;2022-12-18T05:25:09;103006.81;;;-6.78;100.00
7052;BME280;3567;52.444;13.556;2022-12-18T05:27:34;103016.22;;;-6.74;100.00
7052;BME280;3567;52.444;13.556;2022-12-18T05:30:00;103023.06;;;-6.72;100.00
7052;BME280;3567;52.444;13.556;2022-12-18T05:32:25;103021.19;;;-6.68;100.00
7052;BME280;3567;52.444;13.556;2022-12-18T05:34:50;103038.53;;;-6.67;100.00
7052;BME280;3567;52.444;13.556;2022-12-18T05:37:16;103038.41;;;-6.64;100.00
7052;BME280;3567;52.444;13.556;2022-12-18T05:39:42;103029.56;;;-6.60;100.00
7052;BME280;3567;52.444;13.556;2022-12-18T05:42:08;103040.00;;;-6.60;100.00
7052;BME280;3567;52.444;13.556;2022-12-18T05:44:33;103041.56;;;-6.56;100.00
7052;BME280;3567;52.444;13.556;2022-12-18T05:46:59;103047.56;;;-6.54;100.00
7052;BME280;3567;52.444;13.556;2022-12-18T05:49:24;103055.31;;;-6.52;100.00
7052;BME280;3567;52.444;13.556;2022-12-18T05:51:49;103050.09;;;-6.52;100.00
7052;BME280;3567;52.444;13.556;2022-12-18T05:54:15;103056.16;;;-6.52;100.00
7052;BME280;3567;52.444;13.556;2022-12-18T05:56:40;103056.06;;;-6.49;100.00
7052;BME280;3567;52.444;13.556;2022-12-18T05:59:05;103049.94;;;-6.48;100.00
7052;BME280;3567;52.444;13.556;2022-12-18T06:01:31;103048.25;;;-6.49;100.00
7052;BME280;3567;52.444;13.556;2022-12-18T06:03:56;103056.25;;;-6.53;100.00
7052;BME280;3567;52.444;13.556;2022-12-18T06:06:23;103063.31;;;-6.57;100.00
7052;BME280;3567;52.444;13.556;2022-12-18T06:08:50;103060.84;;;-6.60;100.00
7052;BME280;3567;52.444;13.556;2022-12-18T06:11:18;103059.19;;;-6.63;100.00
7052;BME280;3567;52.444;13.556;2022-12-18T06:13:43;103057.00;;;-6.73;100.00
7052;BME280;3567;52.444;13.556;2022-12-18T06:16:09;103060.59;;;-6.76;100.00
7052;BME280;3567;52.444;13.556;2022-12-18T06:18:38;103070.19;;;-6.76;100.00
7052;BME280;3567;52.444;13.556;2022-12-18T06:21:03;103069.25;;;-6.75;100.00
7052;BME280;3567;52.444;13.556;2022-12-18T06:23:29;103065.75;;;-6.74;100.00
7052;BME280;3567;52.444;13.556;2022-12-18T06:25:54;103073.63;;;-6.76;100.00
7052;BME280;3567;52.444;13.556;2022-12-18T06:28:20;103087.44;;;-6.74;100.00
7052;BME280;3567;52.444;13.556;2022-12-18T06:30:46;103085.81;;;-6.76;100.00
7052;BME280;3567;52.444;13.556;2022-12-18T06:33:13;103089.13;;;-6.73;100.00
7052;BME280;3567;52.444;13.556;2022-12-18T06:35:39;103089.88;;;-6.69;100.00
7052;BME280;3567;52.444;13.556;2022-12-18T06:38:05;103084.66;;;-6.69;100.00
7052;BME280;3567;52.444;13.556;2022-12-18T06:40:30;103094.06;;;-6.65;100.00
7052;BME280;3567;52.444;13.556;2022-12-18T06:42:55;103103.44;;;-6.61;100.00
7052;BME280;3567;52.444;13.556;2022-12-18T06:45:21;103097.34;;;-6.60;100.00
7052;BME280;3567;52.444;13.556;2022-12-18T06:47:46;103100.81;;;-6.60;100.00
7052;BME280;3567;52.444;13.556;2022-12-18T06:50:12;103109.47;;;-6.59;100.00
7052;BME280;3567;52.444;13.556;2022-12-18T06:52:39;103112.06;;;-6.59;100.00
7052;BME280;3567;52.444;13.556;2022-12-18T06:55:06;103112.13;;;-6.61;100.00
7052;BME280;3567;52.444;13.556;2022-12-18T06:57:34;103109.66;;;-6.64;100.00
7052;BME280;3567;52.444;13.556;2022-12-18T07:00:00;103115.69;;;-6.63;100.00
7052;BME280;3567;52.444;13.556;2022-12-18T07:02:25;103122.75;;;-6.65;100.00
7052;BME280;3567;52.444;13.556;2022-12-18T07:04:51;103128.06;;;-6.68;100.00
7052;BME280;3567;52.444;13.556;2022-12-18T07:07:16;103137.63;;;-6.69;100.00
7052;BME280;3567;52.444;13.556;2022-12-18T07:09:41;103137.75;;;-6.72;100.00
7052;BME280;3567;52.444;13.556;2022-12-18T07:12:07;103124.94;;;-6.78;100.00
7052;BME280;3567;52.444;13.556;2022-12-18T07:14:33;103126.63;;;-6.77;100.00
7052;BME280;3567;52.444;13.556;2022-12-18T07:16:58;103114.47;;;-6.76;100.00
7052;BME280;3567;52.444;13.556;2022-12-18T07:19:24;103115.19;;;-6.73;100.00
7052;BME280;3567;52.444;13.556;2022-12-18T07:21:50;103119.47;;;-6.70;100.00
7052;BME280;3567;52.444;13.556;2022-12-18T07:24:15;103124.78;;;-6.73;100.00
7052;BME280;3567;52.444;13.556;2022-12-18T07:26:41;103127.44;;;-6.75;100.00
7052;BME280;3567;52.444;13.556;2022-12-18T07:29:06;103124.94;;;-6.78;100.00
7052;BME280;3567;52.444;13.556;2022-12-18T07:31:31;103134.59;;;-6.80;100.00
7052;BME280;3567;52.444;13.556;2022-12-18T07:33:57;103131.91;;;-6.78;100.00
7052;BME280;3567;52.444;13.556;2022-12-18T07:36:22;103131.16;;;-6.82;100.00
7052;BME280;3567;52.444;13.556;2022-12-18T07:38:48;103127.72;;;-6.82;100.00
7052;BME280;3567;52.444;13.556;2022-12-18T07:41:14;103120.72;;;-6.80;100.00
7052;BME280;3567;52.444;13.556;2022-12-18T07:43:40;103119.03;;;-6.81;100.00
7052;BME280;3567;52.444;13.556;2022-12-18T07:46:07;103119.06;;;-6.83;100.00
7052;BME280;3567;52.444;13.556;2022-12-18T07:48:33;103124.16;;;-6.80;100.00
7052;BME280;3567;52.444;13.556;2022-12-18T07:50:59;103123.09;;;-6.74;100.00
7052;BME280;3567;52.444;13.556;2022-12-18T07:53:26;103129.06;;;-6.72;100.00
7052;BME280;3567;52.444;13.556;2022-12-18T07:56:02;103130.78;;;-6.71;100.00
7052;BME280;3567;52.444;13.556;2022-12-18T07:58:48;103130.78;;;-6.71;100.00
7052;BME280;3567;52.444;13.556;2022-12-18T08:01:16;103117.53;;;-6.65;100.00
7052;BME280;3567;52.444;13.556;2022-12-18T08:03:42;103113.19;;;-6.66;100.00
7052;BME280;3567;52.444;13.556;2022-12-18T08:06:08;103130.50;;;-6.64;100.00
7052;BME280;3567;52.444;13.556;2022-12-18T08:08:42;103124.31;;;-6.61;100.00
7052;BME280;3567;52.444;13.556;2022-12-18T08:11:08;103135.53;;;-6.59;100.00
7052;BME280;3567;52.444;13.556;2022-12-18T08:13:33;103146.75;;;-6.57;100.00
7052;BME280;3567;52.444;13.556;2022-12-18T08:16:01;103133.88;;;-6.62;100.00
7052;BME280;3567;52.444;13.556;2022-12-18T08:18:27;103131.25;;;-6.60;100.00
7052;BME280;3567;52.444;13.556;2022-12-18T08:20:52;103130.25;;;-6.57;100.00
7052;BME280;3567;52.444;13.556;2022-12-18T08:23:18;103133.59;;;-6.54;100.00
7052;BME280;3567;52.444;13.556;2022-12-18T08:25:46;103130.88;;;-6.51;100.00
7052;BME280;3567;52.444;13.556;2022-12-18T08:28:16;103127.97;;;-6.43;100.00
7052;BME280;3567;52.444;13.556;2022-12-18T08:30:42;103135.63;;;-6.39;100.00
7052;BME280;3567;52.444;13.556;2022-12-18T08:33:11;103139.75;;;-6.33;100.00
7052;BME280;3567;52.444;13.556;2022-12-18T08:35:37;103137.19;;;-6.35;100.00
7052;BME280;3567;52.444;13.556;2022-12-18T08:38:03;103137.06;;;-6.31;100.00
7052;BME280;3567;52.444;13.556;2022-12-18T08:40:28;103136.94;;;-6.28;100.00
7052;BME280;3567;52.444;13.556;2022-12-18T08:42:54;103134.97;;;-6.22;100.00
7052;BME280;3567;52.444;13.556;2022-12-18T08:45:38;103138.91;;;-6.12;100.00
7052;BME280;3567;52.444;13.556;2022-12-18T08:48:04;103148.84;;;-5.99;100.00
7052;BME280;3567;52.444;13.556;2022-12-18T08:50:29;103147.44;;;-5.88;100.00
7052;BME280;3567;52.444;13.556;2022-12-18T08:53:06;103147.34;;;-5.85;100.00
7052;BME280;3567;52.444;13.556;2022-12-18T08:55:32;103148.03;;;-5.81;100.00
7052;BME280;3567;52.444;13.556;2022-12-18T08:57:57;103159.09;;;-5.74;100.00
7052;BME280;3567;52.444;13.556;2022-12-18T09:00:22;103150.22;;;-5.70;100.00
7052;BME280;3567;52.444;13.556;2022-12-18T09:02:49;103159.53;;;-5.65;100.00
7052;BME280;3567;52.444;13.556;2022-12-18T09:05:14;103166.41;;;-5.62;100.00
7052;BME280;3567;52.444;13.556;2022-12-18T09:07:40;103174.19;;;-5.61;100.00
7052;BME280;3567;52.444;13.556;2022-12-18T09:10:05;103178.38;;;-5.57;100.00
7052;BME280;3567;52.444;13.556;2022-12-18T09:12:31;103172.13;;;-5.53;100.00
7052;BME280;3567;52.444;13.556;2022-12-18T09:15:18;103175.44;;;-5.49;100.00
7052;BME280;3567;52.444;13.556;2022-12-18T09:17:44;103171.78;;;-5.45;100.00
7052;BME280;3567;52.444;13.556;2022-12-18T09:20:09;103179.31;;;-5.37;100.00
7052;BME280;3567;52.444;13.556;2022-12-18T09:22:35;103174.00;;;-5.36;100.00
7052;BME280;3567;52.444;13.556;2022-12-18T09:25:02;103175.63;;;-5.33;100.00
7052;BME280;3567;52.444;13.556;2022-12-18T09:27:34;103173.94;;;-5.34;100.00
7052;BME280;3567;52.444;13.556;2022-12-18T09:29:59;103186.81;;;-5.30;100.00
7052;BME280;3567;52.444;13.556;2022-12-18T09:32:27;103189.09;;;-5.22;100.00
7052;BME280;3567;52.444;13.556;2022-12-18T09:34:53;103191.50;;;-5.17;100.00
7052;BME280;3567;52.444;13.556;2022-12-18T09:37:37;103184.25;;;-5.11;100.00
7052;BME280;3567;52.444;13.556;2022-12-18T09:40:22;103187.31;;;-5.01;100.00
7052;BME280;3567;52.444;13.556;2022-12-18T09:43:10;103178.41;;;-4.97;100.00
7052;BME280;3567;52.444;13.556;2022-12-18T09:46:39;103176.38;;;-4.90;100.00
7052;BME280;3567;52.444;13.556;2022-12-18T09:49:14;103164.94;;;-4.88;100.00
7052;BME280;3567;52.444;13.556;2022-12-18T09:51:52;103161.34;;;-4.85;100.00
7052;BME280;3567;52.444;13.556;2022-12-18T09:54:23;103156.06;;;-4.84;100.00
7052;BME280;3567;52.444;13.556;2022-12-18T09:56:50;103152.34;;;-4.80;100.00
7052;BME280;3567;52.444;13.556;2022-12-18T09:59:32;103151.19;;;-4.72;100.00
7052;BME280;3567;52.444;13.556;2022-12-18T10:02:00;103143.19;;;-4.69;100.00
7052;BME280;3567;52.444;13.556;2022-12-18T10:04:27;103143.19;;;-4.69;100.00
7052;BME280;3567;52.444;13.556;2022-12-18T10:07:19;103129.22;;;-4.68;100.00
7052;BME280;3567;52.444;13.556;2022-12-18T10:10:01;103127.25;;;-4.63;100.00
7052;BME280;3567;52.444;13.556;2022-12-18T10:12:32;103120.06;;;-4.60;100.00
7052;BME280;3567;52.444;13.556;2022-12-18T10:17:47;103113.22;;;-4.62;100.00
7052;BME280;3567;52.444;13.556;2022-12-18T10:20:38;103119.09;;;-4.57;100.00
7052;BME280;3567;52.444;13.556;2022-12-18T10:26:06;103127.25;;;-4.63;100.00
7052;BME280;3567;52.444;13.556;2022-12-18T10:28:34;103115.69;;;-4.59;100.00
7052;BME280;3567;52.444;13.556;2022-12-18T10:31:01;103121.13;;;-4.64;100.00
7052;BME280;3567;52.444;13.556;2022-12-18T10:33:29;103122.91;;;-4.64;100.00
7052;BME280;3567;52.444;13.556;2022-12-18T10:35:55;103114.38;;;-4.68;100.00
7052;BME280;3567;52.444;13.556;2022-12-18T10:38:29;103101.28;;;-4.68;100.00
7052;BME280;3567;52.444;13.556;2022-12-18T10:43:42;103102.41;;;-4.55;100.00
7052;BME280;3567;52.444;13.556;2022-12-18T10:46:12;103100.50;;;-4.51;100.00
7052;BME280;3567;52.444;13.556;2022-12-18T10:48:47;103089.25;;;-4.53;100.00
7052;BME280;3567;52.444;13.556;2022-12-18T10:51:26;103092.66;;;-4.51;100.00
7052;BME280;3567;52.444;13.556;2022-12-18T10:53:59;103091.84;;;-4.53;100.00
7052;BME280;3567;52.444;13.556;2022-12-18T10:56:27;103085.78;;;-4.54;100.00
7052;BME280;3567;52.444;13.556;2022-12-18T10:59:00;103091.72;;;-4.50;100.00
7052;BME280;3567;52.444;13.556;2022-12-18T11:01:26;103088.09;;;-4.48;100.00
7052;BME280;3567;52.444;13.556;2022-12-18T11:06:19;103072.78;;;-4.55;100.00
7052;BME280;3567;52.444;13.556;2022-12-18T11:11:24;103077.25;;;-4.57;100.00
7052;BME280;3567;52.444;13.556;2022-12-18T11:16:29;103074.25;;;-4.50;100.00
7052;BME280;3567;52.444;13.556;2022-12-18T11:19:11;103082.03;;;-4.48;100.00
7052;BME280;3567;52.444;13.556;2022-12-18T11:21:41;103079.34;;;-4.46;100.00
7052;BME280;3567;52.444;13.556;2022-12-18T11:24:19;103065.66;;;-4.52;100.00
7052;BME280;3567;52.444;13.556;2022-12-18T11:26:45;103066.50;;;-4.51;100.00
7052;BME280;3567;52.444;13.556;2022-12-18T11:29:17;103073.41;;;-4.50;100.00
7052;BME280;3567;52.444;13.556;2022-12-18T11:31:42;103072.56;;;-4.51;100.00
7052;BME280;3567;52.444;13.556;2022-12-18T11:34:37;103071.66;;;-4.50;100.00
7052;BME280;3567;52.444;13.556;2022-12-18T11:37:03;103075.09;;;-4.49;100.00
7052;BME280;3567;52.444;13.556;2022-12-18T11:39:36;103080.97;;;-4.44;100.00
7052;BME280;3567;52.444;13.556;2022-12-18T11:44:42;103080.88;;;-4.42;100.00
7052;BME280;3567;52.444;13.556;2022-12-18T11:47:32;103076.66;;;-4.45;100.00
7052;BME280;3567;52.444;13.556;2022-12-18T11:50:01;103075.25;;;-4.52;100.00
7052;BME280;3567;52.444;13.556;2022-12-18T11:52:32;103079.91;;;-4.59;100.00
7052;BME280;3567;52.444;13.556;2022-12-18T11:55:04;103075.53;;;-4.58;100.00
7052;BME280;3567;52.444;13.556;2022-12-18T12:00:18;103073.41;;;-4.50;100.00
7052;BME280;3567;52.444;13.556;2022-12-18T12:03:19;103081.25;;;-4.50;100.00
7052;BME280;3567;52.444;13.556;2022-12-18T12:06:06;103087.34;;;-4.50;100.00
7052;BME280;3567;52.444;13.556;2022-12-18T12:08:58;103087.13;;;-4.45;100.00
7052;BME280;3567;52.444;13.556;2022-12-18T12:11:56;103089.53;;;-4.40;100.00
7052;BME280;3567;52.444;13.556;2022-12-18T12:14:46;103089.53;;;-4.40;100.00
7052;BME280;3567;52.444;13.556;2022-12-18T12:19:57;103098.84;;;-4.35;100.00
7052;BME280;3567;52.444;13.556;2022-12-18T12:22:36;103102.22;;;-4.33;100.00
7052;BME280;3567;52.444;13.556;2022-12-18T12:55:07;103117.06;;;-4.14;100.00
7052;BME280;3567;52.444;13.556;2022-12-18T12:57:45;103122.28;;;-4.14;100.00
7052;BME280;3567;52.444;13.556;2022-12-18T13:00:18;103108.28;;;-4.13;100.00
7052;BME280;3567;52.444;13.556;2022-12-18T13:08:32;103074.34;;;-4.15;100.00
7052;BME280;3567;52.444;13.556;2022-12-18T13:10:58;103068.31;;;-4.17;100.00
7052;BME280;3567;52.444;13.556;2022-12-18T13:13:54;103067.56;;;-4.19;100.00
7052;BME280;3567;52.444;13.556;2022-12-18T13:16:22;103060.69;;;-4.22;100.00
7052;BME280;3567;52.444;13.556;2022-12-18T13:18:52;103071.16;;;-4.22;100.00
7052;BME280;3567;52.444;13.556;2022-12-18T13:21:23;103080.63;;;-4.19;100.00
7052;BME280;3567;52.444;13.556;2022-12-18T13:23:50;103077.00;;;-4.16;100.00
7052;BME280;3567;52.444;13.556;2022-12-18T13:34:19;103089.63;;;-4.25;100.00
7052;BME280;3567;52.444;13.556;2022-12-18T13:36:45;103079.94;;;-4.23;100.00
7052;BME280;3567;52.444;13.556;2022-12-18T13:41:39;103072.88;;;-4.20;100.00
7052;BME280;3567;52.444;13.556;2022-12-18T13:44:13;103075.47;;;-4.20;100.00
7052;BME280;3567;52.444;13.556;2022-12-18T13:46:48;103072.25;;;-4.26;100.00
7052;BME280;3567;52.444;13.556;2022-12-18T13:49:30;103080.94;;;-4.25;100.00
7052;BME280;3567;52.444;13.556;2022-12-18T13:51:58;103072.38;;;-4.29;100.00
7052;BME280;3567;52.444;13.556;2022-12-18T13:54:33;103063.91;;;-4.34;100.00
7052;BME280;3567;52.444;13.556;2022-12-18T13:57:00;103050.06;;;-4.36;100.00
7052;BME280;3567;52.444;13.556;2022-12-18T13:59:33;103050.06;;;-4.36;100.00
7052;BME280;3567;52.444;13.556;2022-12-18T14:02:01;103051.75;;;-4.35;100.00
7052;BME280;3567;52.444;13.556;2022-12-18T14:04:34;103058.59;;;-4.32;100.00
7052;BME280;3567;52.444;13.556;2022-12-18T14:07:05;103053.53;;;-4.35;100.00
7052;BME280;3567;52.444;13.556;2022-12-18T14:09:35;103045.13;;;-4.42;100.00
7052;BME280;3567;52.444;13.556;2022-12-18T14:12:02;103034.09;;;-4.49;100.00
7052;BME280;3567;52.444;13.556;2022-12-18T14:14:56;103037.19;;;-4.58;100.00
7052;BME280;3567;52.444;13.556;2022-12-18T14:17:22;103046.09;;;-4.62;100.00
7052;BME280;3567;52.444;13.556;2022-12-18T14:19:50;103044.59;;;-4.67;100.00
7052;BME280;3567;52.444;13.556;2022-12-18T14:22:21;103038.59;;;-4.69;100.00
7052;BME280;3567;52.444;13.556;2022-12-18T14:27:46;103044.09;;;-4.76;100.00
7052;BME280;3567;52.444;13.556;2022-12-18T14:33:02;103018.59;;;-4.70;100.00
7052;BME280;3567;52.444;13.556;2022-12-18T14:35:27;103019.44;;;-4.70;100.00
7052;BME280;3567;52.444;13.556;2022-12-18T14:37:53;103010.81;;;-4.72;100.00
7052;BME280;3567;52.444;13.556;2022-12-18T14:40:19;103005.59;;;-4.72;100.00